Time;durP1;ratioP1;P1;durP2;ratioP2;P2;SDS_P1;SDS_P2;PMS_P1;PMS_P2;Temp;Humidity;BMP_temperature;BMP_pressure;BME280_temperature;BME280_humidity;BME280_pressure;Samples;Min_cycle;Max_cycle;Signal;HPM_P1;HPM_P2
2023/12/31 00:01:35;;;;;;;6.87;5.97;;;;;;;6.46;100.00;99532.03;5095516;28;20739;-70
2023/12/31 00:04:00;;;;;;;7.93;5.70;;;;;;;6.43;100.00;99532.19;5090249;28;20258;-71
2023/12/31 00:06:26;;;;;;;7.43;5.90;;;;;;;6.25;100.00;99523.63;5087053;28;20270;-71
2023/12/31 00:08:51;;;;;;;8.47;6.20;;;;;;;6.15;100.00;99523.22;5108147;28;20236;-70
2023/12/31 00:11:17;;;;;;;7.23;5.43;;;;;;;6.10;100.00;99512.38;5079792;28;20627;-70
2023/12/31 00:13:42;;;;;;;10.47;6.00;;;;;;;5.89;100.00;99509.91;5082568;28;20221;-70
2023/12/31 00:16:12;;;;;;;8.67;6.03;;;;;;;5.78;100.00;99507.81;5082808;28;20662;-69
2023/12/31 00:18:37;;;;;;;8.60;6.57;;;;;;;5.68;100.00;99504.00;5079508;28;20167;-70
2023/12/31 00:21:03;;;;;;;8.43;6.63;;;;;;;5.58;100.00;99502.75;5073891;28;20791;-70
2023/12/31 00:23:28;;;;;;;10.00;6.90;;;;;;;5.57;100.00;99495.97;5097150;28;20555;-67
2023/12/31 00:25:53;;;;;;;12.43;7.07;;;;;;;5.62;100.00;99494.06;5102112;28;20540;-68
2023/12/31 00:28:18;;;;;;;9.57;5.47;;;;;;;5.53;100.00;99490.19;5097428;28;20256;-72
2023/12/31 00:30:44;;;;;;;7.43;5.93;;;;;;;5.48;100.00;99484.44;5063033;28;20551;-71
2023/12/31 00:33:09;;;;;;;6.87;5.90;;;;;;;5.53;100.00;99482.53;5076435;28;20236;-75
2023/12/31 00:35:35;;;;;;;8.17;6.67;;;;;;;5.60;100.00;99478.00;5085513;28;20614;-69
2023/12/31 00:38:00;;;;;;;8.33;6.40;;;;;;;5.41;100.00;99480.50;5110128;28;20189;-69
2023/12/31 00:40:25;;;;;;;7.63;6.70;;;;;;;5.31;100.00;99475.81;5100027;28;20299;-67
2023/12/31 00:42:50;;;;;;;7.60;6.40;;;;;;;5.28;100.00;99475.09;5107587;28;20179;-67
2023/12/31 00:45:16;;;;;;;9.87;6.53;;;;;;;5.24;100.00;99465.94;5108934;28;20542;-67
2023/12/31 00:47:41;;;;;;;9.47;6.93;;;;;;;5.26;100.00;99464.97;5088232;28;20208;-67
2023/12/31 00:50:07;;;;;;;8.43;7.03;;;;;;;5.14;100.00;99466.31;5092635;28;20278;-70
2023/12/31 00:52:32;;;;;;;8.90;7.57;;;;;;;5.10;100.00;99457.16;5106003;28;20270;-69
2023/12/31 00:54:58;;;;;;;9.57;6.97;;;;;;;5.13;100.00;99453.66;5109002;28;20253;-71
2023/12/31 00:57:23;;;;;;;8.73;6.63;;;;;;;5.11;100.00;99452.88;5107173;28;20709;-69
2023/12/31 00:59:48;;;;;;;10.63;6.80;;;;;;;5.26;100.00;99452.22;5090002;28;20228;-69
2023/12/31 01:02:13;;;;;;;8.27;6.60;;;;;;;5.19;100.00;99443.19;5095303;28;20223;-69
2023/12/31 01:04:39;;;;;;;8.60;6.40;;;;;;;5.01;100.00;99439.69;5088907;28;20280;-70
2023/12/31 01:07:04;;;;;;;7.73;6.13;;;;;;;5.07;100.00;99438.59;5105256;28;20171;-67
2023/12/31 01:09:29;;;;;;;8.60;6.43;;;;;;;5.06;100.00;99434.41;5106264;28;20183;-70
2023/12/31 01:11:54;;;;;;;9.03;7.27;;;;;;;5.12;100.00;99423.94;5093801;28;20678;-67
2023/12/31 01:14:19;;;;;;;8.43;5.97;;;;;;;5.10;100.00;99418.91;5107895;28;20234;-70
2023/12/31 01:16:45;;;;;;;9.53;6.77;;;;;;;5.08;100.00;99417.31;5089769;28;20174;-71
2023/12/31 01:19:10;;;;;;;9.07;6.53;;;;;;;5.10;100.00;99423.19;5108564;28;20179;-70
2023/12/31 01:21:35;;;;;;;9.20;6.60;;;;;;;5.09;100.00;99411.34;5077012;28;20239;-69
2023/12/31 01:24:01;;;;;;;8.17;6.57;;;;;;;5.10;100.00;99407.91;5103275;28;20560;-70
2023/12/31 01:26:26;;;;;;;10.37;6.20;;;;;;;4.98;100.00;99404.16;5089044;28;20199;-70
2023/12/31 01:28:52;;;;;;;9.47;6.20;;;;;;;5.02;100.00;99408.22;5089961;28;20183;-70
2023/12/31 01:31:21;;;;;;;9.27;6.93;;;;;;;4.93;100.00;99406.88;5091903;27;20215;-70
2023/12/31 01:33:46;;;;;;;7.93;6.43;;;;;;;4.92;100.00;99412.03;5086906;28;20187;-68
2023/12/31 01:36:16;;;;;;;10.03;7.27;;;;;;;4.92;100.00;99415.41;5114150;28;20336;-69
2023/12/31 01:38:43;;;;;;;10.93;6.97;;;;;;;4.96;100.00;99408.47;5095251;28;20218;-69
2023/12/31 01:41:09;;;;;;;9.37;6.73;;;;;;;4.92;100.00;99405.22;5084165;28;20231;-74
2023/12/31 01:43:35;;;;;;;8.87;7.23;;;;;;;4.88;100.00;99401.16;5112592;28;20210;-67
2023/12/31 01:46:01;;;;;;;9.43;6.10;;;;;;;4.85;100.00;99399.56;5093898;28;20198;-68
2023/12/31 01:48:28;;;;;;;8.00;7.20;;;;;;;4.90;100.00;99391.72;5112624;28;20175;-69
2023/12/31 01:50:54;;;;;;;12.00;6.87;;;;;;;4.85;100.00;99388.56;5082048;28;20346;-73
2023/12/31 01:53:20;;;;;;;9.73;7.57;;;;;;;4.93;100.00;99383.94;5092582;28;20592;-74
2023/12/31 01:55:47;;;;;;;9.63;7.20;;;;;;;4.87;100.00;99378.28;5092254;28;20671;-69
2023/12/31 01:58:15;;;;;;;9.07;7.33;;;;;;;4.71;100.00;99368.72;5101305;28;20175;-70
2023/12/31 02:00:40;;;;;;;11.07;6.43;;;;;;;4.69;100.00;99350.16;5073232;28;20686;-69
2023/12/31 02:03:07;;;;;;;9.67;7.50;;;;;;;4.71;100.00;99350.06;5093462;28;20195;-71
2023/12/31 02:05:32;;;;;;;9.60;7.53;;;;;;;4.73;100.00;99351.66;5076331;28;20233;-70
2023/12/31 02:07:57;;;;;;;9.07;7.47;;;;;;;4.73;100.00;99346.56;5103490;28;20257;-72
2023/12/31 02:10:23;;;;;;;14.13;6.37;;;;;;;4.71;100.00;99338.16;5102743;28;20435;-72
2023/12/31 02:12:48;;;;;;;8.60;6.70;;;;;;;4.59;100.00;99331.88;5111010;28;20186;-71
2023/12/31 02:15:28;;;;;;;8.97;7.23;;;;;;;4.51;100.00;99329.66;5094516;28;20644;-71
2023/12/31 02:17:53;;;;;;;8.70;6.70;;;;;;;4.49;100.00;99318.69;5093292;28;20241;-71
2023/12/31 02:20:18;;;;;;;7.73;6.90;;;;;;;4.41;100.00;99325.00;5101985;28;20233;-70
2023/12/31 02:22:44;;;;;;;9.43;7.43;;;;;;;4.29;100.00;99306.81;5093460;28;20175;-71
2023/12/31 02:25:12;;;;;;;12.83;7.70;;;;;;;4.33;100.00;99307.50;5111574;28;20641;-71
2023/12/31 02:27:37;;;;;;;9.97;7.27;;;;;;;4.29;100.00;99306.81;5105847;28;20186;-71
2023/12/31 02:30:03;;;;;;;10.40;8.00;;;;;;;4.33;100.00;99307.50;5072141;28;20286;-70
2023/12/31 02:32:29;;;;;;;11.40;6.60;;;;;;;4.38;100.00;99297.09;5074494;28;20578;-71
2023/12/31 02:34:54;;;;;;;9.20;7.43;;;;;;;4.47;100.00;99294.19;5073466;28;20179;-72
2023/12/31 02:37:19;;;;;;;12.47;7.63;;;;;;;4.42;100.00;99293.56;5092123;28;20303;-72
2023/12/31 02:39:44;;;;;;;9.00;7.40;;;;;;;4.38;100.00;99300.50;5095408;28;20206;-72
2023/12/31 02:42:09;;;;;;;10.03;7.50;;;;;;;4.25;100.00;99304.44;5092455;28;20655;-71
2023/12/31 02:44:35;;;;;;;12.23;7.60;;;;;;;4.15;100.00;99309.06;5093184;28;20223;-71
2023/12/31 02:47:00;;;;;;;10.80;7.67;;;;;;;4.08;100.00;99311.06;5083138;28;20198;-71
2023/12/31 02:49:25;;;;;;;10.67;7.13;;;;;;;4.06;100.00;99304.34;5096432;28;20566;-71
2023/12/31 02:51:51;;;;;;;10.30;7.80;;;;;;;3.95;100.00;99313.25;5081475;28;20227;-71
2023/12/31 02:54:16;;;;;;;10.13;7.87;;;;;;;3.86;100.00;99301.72;5108002;28;20190;-70
2023/12/31 02:56:41;;;;;;;11.23;7.87;;;;;;;3.75;100.00;99291.13;5112178;28;20187;-70
2023/12/31 02:59:07;;;;;;;10.17;7.77;;;;;;;3.70;100.00;99280.31;5112046;28;20182;-70
2023/12/31 03:01:32;;;;;;;12.43;8.17;;;;;;;3.66;100.00;99274.53;5074001;28;20233;-71
2023/12/31 03:03:57;;;;;;;10.70;7.53;;;;;;;3.72;100.00;99266.66;5086987;28;20200;-70
2023/12/31 03:06:28;;;;;;;9.20;7.83;;;;;;;3.75;100.00;99252.97;5100120;28;20179;-70
2023/12/31 03:08:58;;;;;;;11.93;7.57;;;;;;;3.88;100.00;99246.53;5096758;28;20626;-71
2023/12/31 03:11:23;;;;;;;11.53;8.63;;;;;;;3.90;100.00;99248.19;5081290;28;20738;-71
2023/12/31 03:13:49;;;;;;;11.03;8.13;;;;;;;4.01;100.00;99249.38;5092145;28;20271;-72
2023/12/31 03:16:14;;;;;;;9.43;7.67;;;;;;;4.07;100.00;99240.69;5092254;28;20561;-72
2023/12/31 03:18:40;;;;;;;11.30;8.43;;;;;;;4.15;100.00;99246.25;5107637;28;20300;-72
2023/12/31 03:21:05;;;;;;;9.57;7.67;;;;;;;4.10;100.00;99250.72;5073715;28;20244;-71
2023/12/31 03:23:30;;;;;;;11.87;8.30;;;;;;;4.03;100.00;99239.97;5073315;28;20212;-71
2023/12/31 03:25:56;;;;;;;9.20;8.23;;;;;;;4.10;100.00;99235.44;5092258;28;20258;-71
2023/12/31 03:28:22;;;;;;;11.33;8.70;;;;;;;4.14;100.00;99237.00;5107385;28;20212;-70
2023/12/31 03:30:47;;;;;;;9.27;7.80;;;;;;;4.10;100.00;99234.63;5101187;28;20312;-72
2023/12/31 03:33:14;;;;;;;11.63;7.93;;;;;;;4.03;100.00;99226.41;5097216;28;20638;-70
2023/12/31 03:35:39;;;;;;;9.63;8.20;;;;;;;4.01;100.00;99211.19;5098544;28;20204;-72
2023/12/31 03:38:04;;;;;;;9.37;7.97;;;;;;;4.18;100.00;99207.97;5091553;28;20167;-72
2023/12/31 03:40:29;;;;;;;10.50;8.47;;;;;;;4.22;100.00;99195.94;5082002;28;20228;-72
2023/12/31 03:42:55;;;;;;;10.87;8.90;;;;;;;4.22;100.00;99203.56;5073797;28;20179;-71
2023/12/31 03:45:20;;;;;;;10.67;8.87;;;;;;;4.29;100.00;99209.22;5092152;28;20598;-71
2023/12/31 03:47:45;;;;;;;10.60;8.30;;;;;;;4.43;100.00;99212.00;5091984;28;20201;-73
2023/12/31 03:50:11;;;;;;;9.37;7.50;;;;;;;4.58;100.00;99207.94;5081276;28;20176;-71
2023/12/31 03:52:38;;;;;;;11.73;8.37;;;;;;;4.65;100.00;99201.69;5090463;28;20486;-70
2023/12/31 03:55:04;;;;;;;12.50;9.07;;;;;;;4.68;100.00;99206.63;5092316;28;20187;-70
2023/12/31 03:57:29;;;;;;;11.77;8.70;;;;;;;4.68;100.00;99208.38;5073644;28;20270;-70
2023/12/31 03:59:54;;;;;;;10.33;8.87;;;;;;;4.69;100.00;99203.19;5092225;28;20267;-71
2023/12/31 04:02:19;;;;;;;12.13;9.43;;;;;;;4.83;100.00;99181.38;5079188;28;20231;-71
2023/12/31 04:04:45;;;;;;;12.40;8.13;;;;;;;4.82;100.00;99177.97;5087344;28;20206;-71
2023/12/31 04:07:10;;;;;;;10.87;8.50;;;;;;;4.76;100.00;99180.81;5073942;28;20201;-70
2023/12/31 04:09:36;;;;;;;11.03;8.73;;;;;;;4.74;100.00;99174.97;5074514;28;20230;-71
2023/12/31 04:12:04;;;;;;;11.17;8.63;;;;;;;4.66;100.00;99175.34;5080919;28;20219;-71
2023/12/31 04:14:30;;;;;;;9.50;8.27;;;;;;;4.69;100.00;99167.53;5092187;28;20191;-71
2023/12/31 04:16:55;;;;;;;12.17;9.40;;;;;;;4.61;100.00;99167.03;5073947;28;20198;-72
2023/12/31 04:19:20;;;;;;;13.00;8.33;;;;;;;4.56;100.00;99161.34;5073609;28;20183;-71
2023/12/31 04:21:45;;;;;;;8.83;7.77;;;;;;;4.50;100.00;99154.81;5080745;28;20240;-71
2023/12/31 04:24:11;;;;;;;10.57;8.03;;;;;;;4.62;100.00;99152.59;5091706;28;20238;-71
2023/12/31 04:26:36;;;;;;;11.13;8.30;;;;;;;4.63;100.00;99149.97;5092343;28;20658;-71
2023/12/31 04:29:01;;;;;;;9.73;8.70;;;;;;;4.65;100.00;99144.81;5092178;28;20199;-71
2023/12/31 04:31:27;;;;;;;10.37;8.50;;;;;;;4.59;100.00;99140.84;5060510;27;20697;-71
2023/12/31 04:33:52;;;;;;;10.13;8.40;;;;;;;4.66;100.00;99129.47;5099105;28;20183;-72
2023/12/31 04:36:17;;;;;;;11.53;8.83;;;;;;;4.60;100.00;99129.75;5097348;28;20234;-72
2023/12/31 04:38:43;;;;;;;11.90;8.60;;;;;;;4.67;100.00;99112.47;5111192;28;20176;-71
2023/12/31 04:41:18;;;;;;;8.70;7.80;;;;;;;4.53;100.00;99106.28;5099767;28;20597;-71
2023/12/31 04:43:43;;;;;;;11.67;7.93;;;;;;;4.65;100.00;99109.16;5078612;28;20198;-71
2023/12/31 04:46:09;;;;;;;10.07;7.80;;;;;;;4.73;100.00;99106.28;5109482;28;20568;-70
2023/12/31 04:48:37;;;;;;;9.43;8.03;;;;;;;4.68;100.00;99094.56;5093310;28;20176;-72
2023/12/31 04:51:02;;;;;;;12.00;8.30;;;;;;;4.63;100.00;99099.03;5103675;28;20669;-72
2023/12/31 04:53:28;;;;;;;10.90;8.83;;;;;;;4.65;100.00;99093.88;5114417;28;20257;-72
2023/12/31 04:55:53;;;;;;;14.63;8.43;;;;;;;4.59;100.00;99099.25;5114613;28;20179;-72
2023/12/31 04:58:18;;;;;;;11.13;7.90;;;;;;;4.63;100.00;99090.59;5096502;28;20627;-71
2023/12/31 05:00:43;;;;;;;10.57;8.07;;;;;;;4.53;100.00;99092.72;5079876;28;20223;-72
2023/12/31 05:03:09;;;;;;;11.60;7.37;;;;;;;4.58;100.00;99085.69;5094181;28;20207;-71
2023/12/31 05:05:34;;;;;;;10.97;7.53;;;;;;;4.49;100.00;99086.94;5110748;28;20673;-71
2023/12/31 05:07:59;;;;;;;11.70;8.20;;;;;;;4.53;100.00;99083.34;5114138;28;20201;-73
2023/12/31 05:10:24;;;;;;;10.93;8.73;;;;;;;4.52;100.00;99076.59;5102948;28;20588;-73
2023/12/31 05:12:49;;;;;;;11.83;8.73;;;;;;;4.53;100.00;99080.00;5113903;28;20182;-73
2023/12/31 05:15:15;;;;;;;10.03;8.43;;;;;;;4.58;100.00;99067.06;5113608;28;20177;-74
2023/12/31 05:17:40;;;;;;;9.50;7.70;;;;;;;4.51;100.00;99067.34;5113885;28;20261;-72
2023/12/31 05:20:07;;;;;;;10.60;8.10;;;;;;;4.65;100.00;99060.75;5084978;28;20219;-72
2023/12/31 05:22:32;;;;;;;14.03;8.27;;;;;;;4.60;100.00;99053.34;5113910;28;20178;-72
2023/12/31 05:24:58;;;;;;;9.07;7.50;;;;;;;4.57;100.00;99050.13;5107602;28;20563;-72
2023/12/31 05:27:23;;;;;;;12.10;7.97;;;;;;;4.62;100.00;99053.25;5097046;28;20214;-72
2023/12/31 05:29:48;;;;;;;11.47;8.47;;;;;;;4.57;100.00;99053.47;5111280;28;20197;-71
2023/12/31 05:32:13;;;;;;;11.27;7.20;;;;;;;4.64;100.00;99041.25;5090821;28;20316;-71
2023/12/31 05:34:39;;;;;;;9.40;7.90;;;;;;;4.53;100.00;99039.25;5093802;28;20179;-71
2023/12/31 05:37:05;;;;;;;10.00;8.27;;;;;;;4.58;100.00;99044.13;5113762;28;20581;-72
2023/12/31 05:39:30;;;;;;;9.10;8.17;;;;;;;4.66;100.00;99042.03;5094562;28;20181;-72
2023/12/31 05:41:55;;;;;;;10.33;8.40;;;;;;;4.62;100.00;99032.88;5084927;28;20332;-72
2023/12/31 05:44:20;;;;;;;9.23;7.40;;;;;;;4.48;100.00;99029.25;5093090;28;20204;-72
2023/12/31 05:46:46;;;;;;;13.67;8.07;;;;;;;4.61;100.00;99033.78;5112877;28;20568;-71
2023/12/31 05:49:11;;;;;;;8.27;7.30;;;;;;;4.56;100.00;99020.44;5112866;28;20188;-71
2023/12/31 05:51:36;;;;;;;8.47;6.80;;;;;;;4.68;100.00;99018.13;5102254;28;20221;-72
2023/12/31 05:54:02;;;;;;;9.57;7.23;;;;;;;4.77;100.00;99009.22;5094218;28;20184;-71
2023/12/31 05:56:27;;;;;;;12.27;7.03;;;;;;;4.70;100.00;99007.84;5112885;28;20183;-71
2023/12/31 05:58:52;;;;;;;7.00;6.23;;;;;;;4.81;100.00;99007.34;5099310;28;20207;-71
2023/12/31 06:01:17;;;;;;;8.50;5.80;;;;;;;4.87;100.00;99004.50;5089784;28;20325;-71
2023/12/31 06:03:43;;;;;;;7.60;6.37;;;;;;;4.68;100.00;98997.75;5096547;28;20197;-72
2023/12/31 06:06:08;;;;;;;7.40;6.40;;;;;;;4.82;100.00;98999.63;5113644;28;20186;-64
2023/12/31 06:08:33;;;;;;;7.10;5.73;;;;;;;4.86;100.00;99002.84;5103213;28;20227;-71
2023/12/31 06:10:59;;;;;;;11.57;6.43;;;;;;;4.91;100.00;98995.00;5082326;28;20641;-71
2023/12/31 06:13:24;;;;;;;6.67;5.27;;;;;;;5.01;100.00;98999.56;5094375;28;20187;-70
2023/12/31 06:15:49;;;;;;;7.53;5.80;;;;;;;5.16;100.00;99004.81;5095341;28;20209;-75
2023/12/31 06:18:15;;;;;;;6.33;5.63;;;;;;;5.15;100.00;99008.25;5095965;28;20208;-74
2023/12/31 06:20:41;;;;;;;6.37;5.00;;;;;;;5.28;100.00;99001.66;5084496;28;20240;-72
2023/12/31 06:23:06;;;;;;;6.20;5.47;;;;;;;5.42;100.00;99010.31;5076542;28;20212;-72
2023/12/31 06:25:31;;;;;;;6.90;5.87;;;;;;;5.52;100.00;99011.50;5094368;28;20182;-72
2023/12/31 06:27:57;;;;;;;8.17;5.73;;;;;;;5.31;100.00;98998.13;5095873;28;20203;-72
2023/12/31 06:30:22;;;;;;;6.47;5.80;;;;;;;5.30;100.00;99002.38;5084526;28;20215;-72
2023/12/31 06:32:47;;;;;;;8.10;5.93;;;;;;;5.29;100.00;99003.28;5091763;28;20187;-72
2023/12/31 06:35:13;;;;;;;6.30;5.43;;;;;;;5.32;100.00;98999.75;5074903;28;20206;-72
2023/12/31 06:37:38;;;;;;;7.27;5.87;;;;;;;5.42;100.00;98995.00;5092692;28;20212;-72
2023/12/31 06:40:04;;;;;;;6.13;5.53;;;;;;;5.42;100.00;98993.31;5083726;28;20179;-71
2023/12/31 06:42:29;;;;;;;6.40;5.67;;;;;;;5.42;100.00;98990.75;5091536;28;20267;-72
2023/12/31 06:44:55;;;;;;;5.73;5.13;;;;;;;5.38;100.00;98993.53;5074596;28;20635;-73
2023/12/31 06:47:20;;;;;;;8.77;6.00;;;;;;;5.34;100.00;98991.13;5092008;28;20613;-72
2023/12/31 06:49:46;;;;;;;7.43;5.10;;;;;;;5.36;100.00;98997.88;5074505;28;20295;-72
2023/12/31 06:52:13;;;;;;;5.50;4.93;;;;;;;5.23;100.00;99002.78;5063845;28;20224;-72
2023/12/31 06:54:39;;;;;;;6.57;5.87;;;;;;;5.39;100.00;98993.44;5093451;28;20534;-71
2023/12/31 06:57:04;;;;;;;6.43;5.13;;;;;;;5.43;100.00;98986.47;5093151;28;20187;-71
2023/12/31 06:59:30;;;;;;;6.40;5.27;;;;;;;5.42;100.00;98985.66;5093169;28;20191;-75
2023/12/31 07:01:55;;;;;;;9.83;5.73;;;;;;;5.34;100.00;98992.84;5082931;28;20227;-72
2023/12/31 07:04:20;;;;;;;7.33;5.57;;;;;;;5.38;100.00;98991.78;5075530;28;20204;-72
2023/12/31 07:06:45;;;;;;;6.30;5.63;;;;;;;5.41;100.00;98989.09;5094188;28;20298;-72
2023/12/31 07:09:11;;;;;;;7.20;5.23;;;;;;;5.40;100.00;98984.88;5093555;28;20198;-71
2023/12/31 07:11:37;;;;;;;6.97;5.43;;;;;;;5.42;100.00;98984.81;5064169;28;20228;-71
2023/12/31 07:14:03;;;;;;;5.63;5.03;;;;;;;5.45;100.00;98969.34;5074734;28;20168;-72
2023/12/31 07:16:28;;;;;;;6.10;5.33;;;;;;;5.50;100.00;98972.50;5092751;28;20188;-71
2023/12/31 07:18:54;;;;;;;11.27;5.10;;;;;;;5.52;100.00;98970.69;5074582;28;20194;-71
2023/12/31 07:21:23;;;;;;;6.67;5.47;;;;;;;5.50;100.00;98973.31;5081109;28;20336;-72
2023/12/31 07:23:49;;;;;;;5.73;4.90;;;;;;;5.48;100.00;98964.09;5091861;28;20206;-71
2023/12/31 07:26:25;;;;;;;7.30;5.20;;;;;;;5.49;100.00;98964.03;5092540;28;20184;-72
2023/12/31 07:28:50;;;;;;;6.47;5.37;;;;;;;5.53;100.00;98958.75;5073892;28;20190;-71
2023/12/31 07:31:16;;;;;;;6.50;4.70;;;;;;;5.44;100.00;98947.31;5080908;28;20579;-71
2023/12/31 07:33:41;;;;;;;7.00;4.80;;;;;;;5.47;100.00;98955.63;5073694;28;20217;-71
2023/12/31 07:36:07;;;;;;;5.20;4.57;;;;;;;5.45;100.00;98944.66;5096110;28;20642;-70
2023/12/31 07:38:32;;;;;;;6.23;5.17;;;;;;;5.45;100.00;98942.13;5074725;28;20194;-71
2023/12/31 07:40:57;;;;;;;11.07;5.40;;;;;;;5.53;100.00;98931.50;5082441;28;20223;-71
2023/12/31 07:43:22;;;;;;;6.63;5.47;;;;;;;5.50;100.00;98931.69;5092156;28;20219;-71
2023/12/31 07:45:47;;;;;;;9.77;5.10;;;;;;;5.46;100.00;98930.22;5076544;28;20504;-71
2023/12/31 07:48:13;;;;;;;6.47;5.23;;;;;;;5.49;100.00;98933.41;5092530;28;20172;-71
2023/12/31 07:50:38;;;;;;;5.87;4.70;;;;;;;5.57;100.00;98935.56;5081681;28;20235;-71
2023/12/31 07:53:03;;;;;;;5.90;5.00;;;;;;;5.63;100.00;98922.47;5089672;28;20179;-71
2023/12/31 07:55:28;;;;;;;4.87;3.80;;;;;;;5.68;100.00;98926.50;5101854;28;20219;-71
2023/12/31 07:57:54;;;;;;;5.03;3.77;;;;;;;5.74;100.00;98921.91;5104123;28;20186;-70
2023/12/31 08:00:19;;;;;;;5.23;3.83;;;;;;;5.62;100.00;98931.03;5069971;28;20179;-70
2023/12/31 08:02:44;;;;;;;6.30;4.07;;;;;;;5.64;100.00;98923.28;5073090;28;20184;-70
2023/12/31 08:05:11;;;;;;;3.97;3.60;;;;;;;5.54;100.00;98925.50;5100430;28;20566;-73
2023/12/31 08:07:36;;;;;;;4.83;4.07;;;;;;;5.70;100.00;98915.31;5096211;28;20190;-72
2023/12/31 08:10:01;;;;;;;3.83;3.43;;;;;;;5.78;100.00;98923.41;5078635;28;20188;-71
2023/12/31 08:12:26;;;;;;;6.17;3.83;;;;;;;5.64;100.00;98906.28;5046764;28;20220;-70
2023/12/31 08:14:52;;;;;;;7.17;4.10;;;;;;;5.62;100.00;98905.53;5093814;28;20204;-71
2023/12/31 08:17:17;;;;;;;4.77;3.87;;;;;;;5.58;100.00;98895.56;5092996;28;20180;-71
2023/12/31 08:19:42;;;;;;;4.13;3.70;;;;;;;5.45;100.00;98905.59;5095005;28;20258;-71
2023/12/31 08:22:07;;;;;;;4.37;3.73;;;;;;;5.47;100.00;98908.88;5062801;28;20215;-62
2023/12/31 08:24:33;;;;;;;8.23;3.63;;;;;;;5.63;100.00;98902.06;5107146;28;20650;-61
2023/12/31 08:26:58;;;;;;;4.03;3.63;;;;;;;5.68;100.00;98906.09;5102176;28;20183;-71
2023/12/31 08:29:23;;;;;;;5.20;4.07;;;;;;;5.77;100.00;98908.16;5101641;28;20182;-71
2023/12/31 08:31:49;;;;;;;7.73;4.93;;;;;;;5.77;100.00;98908.97;5044185;28;20227;-71
2023/12/31 08:34:15;;;;;;;5.80;3.63;;;;;;;5.81;100.00;98902.81;5070643;28;20268;-73
2023/12/31 08:36:40;;;;;;;8.20;5.00;;;;;;;5.86;100.00;98886.44;5094524;28;20236;-72
2023/12/31 08:39:06;;;;;;;5.50;4.33;;;;;;;6.00;100.00;98878.84;5094338;28;20714;-72
2023/12/31 08:41:32;;;;;;;4.50;3.97;;;;;;;6.07;100.00;98875.06;5093835;28;20228;-71
2023/12/31 08:43:57;;;;;;;5.20;4.13;;;;;;;6.10;100.00;98871.50;5093443;28;20659;-72
2023/12/31 08:46:22;;;;;;;4.47;4.07;;;;;;;6.13;100.00;98879.81;5113760;28;20200;-71
2023/12/31 08:48:47;;;;;;;5.23;4.23;;;;;;;6.26;100.00;98879.13;5114956;28;20214;-71
2023/12/31 08:51:13;;;;;;;6.60;4.63;;;;;;;6.19;100.00;98876.13;5103281;27;20698;-70
2023/12/31 08:53:38;;;;;;;5.20;4.10;;;;;;;6.33;100.00;98877.06;5113760;28;20644;-71
2023/12/31 08:56:04;;;;;;;4.83;4.33;;;;;;;6.39;100.00;98867.31;5115078;28;20173;-70
2023/12/31 08:58:29;;;;;;;5.33;4.63;;;;;;;6.42;100.00;98862.03;5114246;28;20211;-71
2023/12/31 09:00:55;;;;;;;5.13;4.10;;;;;;;6.49;100.00;98859.97;5104210;28;20231;-71
2023/12/31 09:03:21;;;;;;;5.63;4.27;;;;;;;6.46;100.00;98865.22;5112948;28;20214;-72
2023/12/31 09:05:46;;;;;;;4.57;4.10;;;;;;;6.40;100.00;98873.25;5114784;28;20187;-71
2023/12/31 09:08:11;;;;;;;5.17;3.93;;;;;;;6.49;100.00;98872.72;5113577;28;20241;-71
2023/12/31 09:10:36;;;;;;;4.00;3.60;;;;;;;6.47;100.00;98864.31;5103436;27;20273;-70
2023/12/31 09:13:03;;;;;;;4.27;3.87;;;;;;;6.23;100.00;98851.22;5112485;27;20176;-72
2023/12/31 09:15:28;;;;;;;4.57;3.83;;;;;;;6.00;100.00;98848.22;5112917;28;20175;-73
2023/12/31 09:17:53;;;;;;;4.77;3.70;;;;;;;5.92;100.00;98851.19;5113169;28;20190;-73
2023/12/31 09:20:19;;;;;;;5.13;4.27;;;;;;;5.80;100.00;98852.69;5084499;28;20255;-73
2023/12/31 09:22:44;;;;;;;7.30;4.60;;;;;;;5.78;100.00;98856.22;5095845;28;20179;-73
2023/12/31 09:25:09;;;;;;;5.33;4.43;;;;;;;5.81;100.00;98858.59;5113856;28;20580;-72
2023/12/31 09:27:35;;;;;;;4.93;4.10;;;;;;;5.84;100.00;98855.88;5113598;28;20182;-71
2023/12/31 09:30:00;;;;;;;5.53;4.00;;;;;;;5.91;100.00;98849.53;5113292;28;20187;-72
2023/12/31 09:32:26;;;;;;;4.40;3.90;;;;;;;6.06;100.00;98847.06;5089443;28;20228;-71
2023/12/31 09:34:51;;;;;;;7.07;4.13;;;;;;;6.10;100.00;98848.53;5100059;28;20589;-71
2023/12/31 09:37:19;;;;;;;4.43;3.97;;;;;;;6.12;100.00;98847.53;5100316;28;20180;-71
2023/12/31 09:39:48;;;;;;;4.37;3.97;;;;;;;6.15;100.00;98846.53;5113997;28;20189;-70
2023/12/31 09:42:17;;;;;;;5.93;3.83;;;;;;;6.23;100.00;98856.34;5082520;28;20241;-71
2023/12/31 09:44:44;;;;;;;5.37;4.37;;;;;;;6.33;100.00;98854.09;5113671;28;20225;-70
2023/12/31 09:47:11;;;;;;;4.23;3.87;;;;;;;6.28;100.00;98855.16;5093662;28;20373;-71
2023/12/31 09:49:37;;;;;;;5.30;4.47;;;;;;;6.43;100.00;98850.91;5095036;28;20171;-71
2023/12/31 09:52:05;;;;;;;4.37;3.97;;;;;;;6.52;100.00;98856.41;5083830;28;20223;-70
2023/12/31 09:54:34;;;;;;;4.47;3.90;;;;;;;6.45;100.00;98850.84;5113185;28;20190;-72
2023/12/31 09:57:00;;;;;;;4.67;4.27;;;;;;;6.52;100.00;98831.66;5093790;28;20187;-71
2023/12/31 09:59:27;;;;;;;4.50;4.07;;;;;;;6.53;100.00;98833.31;5094870;28;20179;-71
2023/12/31 10:01:59;;;;;;;5.00;4.33;;;;;;;6.44;100.00;98821.09;5055991;28;20579;-70
2023/12/31 10:04:26;;;;;;;4.90;4.13;;;;;;;6.43;100.00;98822.81;5103002;28;20638;-71
2023/12/31 10:06:52;;;;;;;4.83;4.33;;;;;;;6.42;100.00;98821.16;5094337;28;20187;-71
2023/12/31 10:09:19;;;;;;;4.67;4.17;;;;;;;6.51;100.00;98811.31;5094520;28;20190;-71
2023/12/31 10:11:45;;;;;;;4.30;3.90;;;;;;;6.65;100.00;98813.91;5100808;28;20215;-71
2023/12/31 10:14:12;;;;;;;4.20;3.80;;;;;;;6.66;100.00;98810.44;5094872;28;20206;-72
2023/12/31 10:16:43;;;;;;;4.70;3.90;;;;;;;6.76;100.00;98811.53;5093128;28;20175;-70
2023/12/31 10:19:08;;;;;;;4.87;4.17;;;;;;;6.84;100.00;98794.91;5094201;28;20183;-71
2023/12/31 10:21:33;;;;;;;4.37;3.97;;;;;;;6.92;100.00;98790.16;5099637;28;20218;-70
2023/12/31 10:23:59;;;;;;;4.83;3.80;;;;;;;7.03;100.00;98777.56;5111947;28;20607;-70
2023/12/31 10:26:24;;;;;;;5.37;4.13;;;;;;;7.14;100.00;98761.53;5111061;28;20178;-70
2023/12/31 10:28:49;;;;;;;4.07;3.67;;;;;;;7.15;100.00;98755.50;5094342;28;20182;-70
2023/12/31 10:31:15;;;;;;;4.63;4.13;;;;;;;7.22;100.00;98756.78;5096556;28;20211;-70
2023/12/31 10:33:40;;;;;;;5.17;3.53;;;;;;;7.27;100.00;98756.50;5092424;28;20192;-72
2023/12/31 10:36:06;;;;;;;4.63;4.20;;;;;;;7.31;100.00;98757.94;5077557;28;20164;-72
2023/12/31 10:38:45;;;;;;;6.10;4.90;;;;;;;7.32;100.00;98753.63;5093969;28;20191;-70
2023/12/31 10:41:17;;;;;;;4.20;3.80;;;;;;;7.51;100.00;98750.75;5083353;28;20241;-71
2023/12/31 10:43:45;;;;;;;4.90;3.90;;;;;;;7.39;100.00;98739.53;5092629;28;20200;-71
2023/12/31 10:46:14;;;;;;;4.20;3.80;;;;;;;7.50;100.00;98739.69;5092399;28;20317;-73
2023/12/31 10:48:47;;;;;;;4.90;4.27;;;;;;;7.46;100.00;98742.56;5093394;28;20222;-74
2023/12/31 10:51:13;;;;;;;4.80;4.40;;;;;;;7.49;100.00;98734.66;5069280;28;20346;-72
2023/12/31 10:53:41;;;;;;;4.77;4.37;;;;;;;7.55;100.00;98772.66;5075126;28;20184;-72
2023/12/31 10:56:06;;;;;;;7.87;4.70;;;;;;;7.47;100.00;98839.66;5094345;28;20252;-73
2023/12/31 10:58:32;;;;;;;4.13;3.77;;;;;;;7.17;100.00;98840.63;5112217;28;20317;-74
2023/12/31 11:00:58;;;;;;;3.00;2.53;;;;;;;6.78;100.00;98834.44;5101674;28;20227;-74
2023/12/31 11:03:26;;;;;;;3.63;2.80;;;;;;;6.70;100.00;98823.81;5093304;28;20195;-74
2023/12/31 11:05:52;;;;;;;4.43;2.73;;;;;;;6.70;100.00;98836.59;5112764;28;20271;-73
2023/12/31 11:08:18;;;;;;;2.90;2.40;;;;;;;6.59;100.00;98822.72;5098034;28;20658;-73
2023/12/31 11:10:43;;;;;;;1.67;1.57;;;;;;;6.57;100.00;98821.19;5101462;28;20300;-73
2023/12/31 11:13:09;;;;;;;3.20;1.60;;;;;;;6.74;100.00;98821.00;5110866;28;20257;-72
2023/12/31 11:15:36;;;;;;;2.03;1.57;;;;;;;6.92;100.00;98818.25;5112021;28;20220;-73
2023/12/31 11:18:08;;;;;;;2.40;1.60;;;;;;;6.89;100.00;98808.25;5091901;28;20180;-74
2023/12/31 11:20:51;;;;;;;2.00;1.50;;;;;;;7.02;100.00;98796.38;5082483;28;20670;-73
2023/12/31 11:23:25;;;;;;;2.40;1.80;;;;;;;7.07;100.00;98799.47;5109865;28;20626;-73
2023/12/31 11:25:51;;;;;;;2.60;1.80;;;;;;;7.13;100.00;98811.03;5093760;28;20315;-74